Time;durP1;ratioP1;P1;durP2;ratioP2;P2;SDS_P1;SDS_P2;PMS_P1;PMS_P2;Temp;Humidity;BMP_temperature;BMP_pressure;BME280_temperature;BME280_humidity;BME280_pressure;Samples;Min_cycle;Max_cycle;Signal;HPM_P1;HPM_P2
2022/04/24 00:01:27;;;;;;;20.90;9.63;;;;;;;7.57;100.00;99786.63;5093722;28;20034;-49
2022/04/24 00:03:53;;;;;;;12.13;6.20;;;;;;;7.56;100.00;99792.09;5097065;28;20113;-50
2022/04/24 00:06:18;;;;;;;17.90;5.85;;;;;;;7.53;100.00;99788.00;5086814;28;20038;-49
2022/04/24 00:08:44;;;;;;;16.70;7.13;;;;;;;7.50;100.00;99785.75;5099313;28;20077;-48
2022/04/24 00:11:09;;;;;;;18.77;7.07;;;;;;;7.46;100.00;99792.41;5096530;28;20067;-47
2022/04/24 00:13:41;;;;;;;18.98;7.35;;;;;;;7.42;100.00;99791.97;5094747;28;20126;-46
2022/04/24 00:16:08;;;;;;;16.38;5.85;;;;;;;7.40;100.00;99791.31;5095842;28;20058;-46
2022/04/24 00:18:34;;;;;;;15.30;5.88;;;;;;;7.40;100.00;99793.97;5097007;28;20035;-47
2022/04/24 00:21:00;;;;;;;23.38;8.57;;;;;;;7.39;100.00;99800.25;5095171;28;20550;-46
2022/04/24 00:23:25;;;;;;;14.05;6.45;;;;;;;7.38;100.00;99795.16;5077885;28;20032;-47
2022/04/24 00:25:50;;;;;;;13.68;6.07;;;;;;;7.31;100.00;99795.09;5094352;28;20119;-49
2022/04/24 00:28:16;;;;;;;15.57;5.88;;;;;;;7.26;100.00;99799.28;5097739;28;20369;-48
2022/04/24 00:30:41;;;;;;;15.65;7.05;;;;;;;7.18;100.00;99798.41;5096389;28;20036;-47
2022/04/24 00:33:06;;;;;;;15.88;6.50;;;;;;;7.14;100.00;99804.22;5102234;28;20031;-50
2022/04/24 00:35:32;;;;;;;15.57;5.75;;;;;;;7.06;100.00;99802.50;5098469;28;20031;-49
2022/04/24 00:37:58;;;;;;;19.77;7.82;;;;;;;7.02;100.00;99801.22;5096245;28;20039;-51
2022/04/24 00:40:23;;;;;;;16.05;7.55;;;;;;;6.96;100.00;99810.69;5103160;28;20032;-51
2022/04/24 00:42:49;;;;;;;14.38;7.93;;;;;;;6.91;100.00;99809.63;5099668;28;20380;-46
2022/04/24 00:45:15;;;;;;;26.35;8.60;;;;;;;6.90;100.00;99806.16;5104358;28;20030;-50
2022/04/24 00:47:43;;;;;;;18.95;6.63;;;;;;;6.89;100.00;99806.34;5105352;28;20028;-47
2022/04/24 00:50:10;;;;;;;13.00;6.32;;;;;;;6.85;100.00;99810.34;5101895;28;20055;-47
2022/04/24 00:52:36;;;;;;;18.85;7.22;;;;;;;6.84;100.00;99813.97;5101491;28;20477;-49
2022/04/24 00:55:02;;;;;;;15.63;6.28;;;;;;;6.80;100.00;99810.09;5104746;28;20038;-48
2022/04/24 00:57:28;;;;;;;15.13;7.07;;;;;;;6.73;100.00;99815.25;5087480;28;20384;-51
2022/04/24 00:59:53;;;;;;;21.88;6.72;;;;;;;6.70;100.00;99813.81;5105005;28;20519;-46
2022/04/24 01:02:20;;;;;;;12.55;7.13;;;;;;;6.67;100.00;99816.00;5103037;28;20037;-46
2022/04/24 01:04:45;;;;;;;17.85;8.00;;;;;;;6.69;100.00;99817.44;5104106;28;20040;-46
2022/04/24 01:07:11;;;;;;;19.52;6.55;;;;;;;6.69;100.00;99817.44;5103982;28;20024;-48
2022/04/24 01:09:37;;;;;;;20.55;6.45;;;;;;;6.64;100.00;99821.63;5102101;28;20574;-51
2022/04/24 01:12:04;;;;;;;23.83;9.10;;;;;;;6.56;100.00;99809.38;5105875;28;20327;-48
2022/04/24 01:14:31;;;;;;;9.25;6.35;;;;;;;6.53;100.00;99814.97;5097933;28;20404;-48
2022/04/24 01:16:57;;;;;;;16.45;6.70;;;;;;;6.50;100.00;99815.34;5103954;28;20383;-49
2022/04/24 01:19:24;;;;;;;18.98;7.10;;;;;;;6.42;100.00;99815.44;5100169;28;20399;-47
2022/04/24 01:21:49;;;;;;;18.13;6.70;;;;;;;6.47;100.00;99818.34;5105793;28;20115;-46
2022/04/24 01:24:19;;;;;;;16.00;6.40;;;;;;;6.50;100.00;99825.88;5106244;28;20133;-45
2022/04/24 01:26:45;;;;;;;14.50;6.90;;;;;;;6.49;100.00;99811.91;5099014;28;20469;-47
2022/04/24 01:29:11;;;;;;;33.53;9.25;;;;;;;6.48;100.00;99818.16;5103238;28;20110;-46
2022/04/24 01:31:38;;;;;;;19.25;6.07;;;;;;;6.42;100.00;99815.44;5106208;28;20362;-51
2022/04/24 01:34:03;;;;;;;11.10;5.85;;;;;;;6.44;100.00;99818.69;5104546;28;20092;-46
2022/04/24 01:36:29;;;;;;;15.93;6.55;;;;;;;6.44;100.00;99816.88;5100890;28;20411;-45
2022/04/24 01:38:54;;;;;;;16.30;6.93;;;;;;;6.42;100.00;99816.25;5106433;28;20395;-48
2022/04/24 01:41:20;;;;;;;21.65;7.68;;;;;;;6.37;100.00;99823.84;5102773;28;20538;-46
2022/04/24 01:43:46;;;;;;;20.85;7.07;;;;;;;6.33;100.00;99822.59;5104499;28;20480;-49
2022/04/24 01:46:13;;;;;;;18.08;8.60;;;;;;;6.33;100.00;99818.16;5107346;28;20096;-48
2022/04/24 01:48:39;;;;;;;17.30;7.70;;;;;;;6.30;100.00;99817.69;5098978;28;20590;-49
2022/04/24 01:51:07;;;;;;;13.82;6.70;;;;;;;6.26;100.00;99827.75;5106386;28;20028;-51
2022/04/24 01:53:33;;;;;;;22.85;6.47;;;;;;;6.20;100.00;99819.78;5093689;28;20023;-50
2022/04/24 01:56:01;;;;;;;22.30;8.13;;;;;;;6.14;100.00;99829.16;5105443;28;20117;-47
2022/04/24 01:58:27;;;;;;;23.67;7.75;;;;;;;6.10;100.00;99830.53;5108718;28;20059;-48
2022/04/24 02:00:53;;;;;;;15.05;7.72;;;;;;;6.09;100.00;99829.72;5094519;28;20062;-46
2022/04/24 02:03:20;;;;;;;15.20;7.60;;;;;;;6.03;100.00;99824.34;5110519;28;20037;-46
2022/04/24 02:05:46;;;;;;;20.60;7.85;;;;;;;6.02;100.00;99826.16;5105119;28;20156;-46
2022/04/24 02:08:12;;;;;;;16.52;6.70;;;;;;;6.03;100.00;99821.72;5098597;28;20028;-51
2022/04/24 02:10:37;;;;;;;27.40;8.10;;;;;;;5.97;100.00;99823.25;5097556;28;20030;-49
2022/04/24 02:13:03;;;;;;;18.65;7.07;;;;;;;5.94;100.00;99836.75;5104518;28;20028;-47
2022/04/24 02:15:28;;;;;;;12.98;4.97;;;;;;;5.92;100.00;99835.25;5097536;28;20043;-49
2022/04/24 02:17:55;;;;;;;10.30;6.13;;;;;;;5.89;100.00;99828.53;5115886;28;20159;-50
2022/04/24 02:20:20;;;;;;;17.20;6.60;;;;;;;5.86;100.00;99824.44;5096644;28;20036;-46
2022/04/24 02:22:45;;;;;;;12.50;6.80;;;;;;;5.87;100.00;99835.78;5090865;28;20051;-50
2022/04/24 02:25:11;;;;;;;12.60;7.10;;;;;;;5.86;100.00;99827.09;5097967;28;20430;-50
2022/04/24 02:27:37;;;;;;;16.67;6.30;;;;;;;5.84;100.00;99834.31;5099992;28;20042;-46
2022/04/24 02:30:03;;;;;;;10.52;6.35;;;;;;;5.78;100.00;99832.41;5115028;28;20062;-49
2022/04/24 02:32:28;;;;;;;17.67;6.90;;;;;;;5.83;100.00;99837.13;5117591;28;20097;-47
2022/04/24 02:34:53;;;;;;;17.10;6.18;;;;;;;5.79;100.00;99844.56;5110237;28;20118;-47
2022/04/24 02:37:19;;;;;;;22.05;7.93;;;;;;;5.80;100.00;99840.91;5104214;28;20110;-48
2022/04/24 02:39:44;;;;;;;12.57;6.28;;;;;;;5.88;100.00;99851.38;5101011;28;20038;-48
2022/04/24 02:42:09;;;;;;;14.98;7.03;;;;;;;5.86;100.00;99858.66;5098390;28;20028;-50
2022/04/24 02:44:35;;;;;;;17.70;7.32;;;;;;;5.83;100.00;99858.16;5096519;28;20376;-49
2022/04/24 02:47:01;;;;;;;14.77;6.72;;;;;;;5.76;100.00;99852.81;5100332;28;20488;-47
2022/04/24 02:49:26;;;;;;;16.23;6.65;;;;;;;5.68;100.00;99858.94;5103372;28;20032;-48
2022/04/24 02:51:52;;;;;;;8.38;6.00;;;;;;;5.59;100.00;99856.53;5109368;28;20031;-48
2022/04/24 02:54:17;;;;;;;13.30;7.63;;;;;;;5.58;100.00;99860.16;5097325;28;20064;-48
2022/04/24 02:56:42;;;;;;;14.18;5.82;;;;;;;5.51;100.00;99861.84;5096072;28;20063;-48
2022/04/24 02:59:08;;;;;;;14.43;7.07;;;;;;;5.44;100.00;99853.81;5105585;28;20036;-47
2022/04/24 03:01:36;;;;;;;15.65;8.48;;;;;;;5.44;100.00;99859.88;5112617;28;20392;-47
2022/04/24 03:04:01;;;;;;;16.65;6.43;;;;;;;5.46;100.00;99862.34;5096509;28;20114;-50
2022/04/24 03:06:27;;;;;;;18.38;7.85;;;;;;;5.44;100.00;99859.06;5100088;28;20165;-47
2022/04/24 03:08:52;;;;;;;10.55;6.70;;;;;;;5.40;100.00;99860.41;5105920;28;20439;-45
2022/04/24 03:11:17;;;;;;;20.27;7.10;;;;;;;5.35;100.00;99858.31;5112506;27;20027;-50
2022/04/24 03:13:43;;;;;;;22.92;6.85;;;;;;;5.33;100.00;99856.84;5113060;28;20039;-48
2022/04/24 03:16:09;;;;;;;19.65;6.95;;;;;;;5.31;100.00;99858.81;5104045;28;20042;-48
2022/04/24 03:18:35;;;;;;;14.73;7.85;;;;;;;5.31;100.00;99859.63;5099044;28;20039;-51
2022/04/24 03:21:01;;;;;;;14.80;7.45;;;;;;;5.32;100.00;99856.03;5099448;28;20031;-48
2022/04/24 03:23:26;;;;;;;17.80;9.57;;;;;;;5.29;100.00;99856.34;5104165;28;20024;-48
2022/04/24 03:25:52;;;;;;;12.43;6.18;;;;;;;5.27;100.00;99853.09;5105918;28;20028;-51
2022/04/24 03:28:17;;;;;;;20.83;6.78;;;;;;;5.29;100.00;99855.53;5104622;28;20486;-50
2022/04/24 03:30:45;;;;;;;25.15;7.68;;;;;;;5.30;100.00;99852.75;5097144;28;20046;-46
2022/04/24 03:33:11;;;;;;;22.50;8.75;;;;;;;5.32;100.00;99861.28;5101404;28;20122;-48
2022/04/24 03:35:36;;;;;;;20.38;8.02;;;;;;;5.39;100.00;99854.31;5101414;28;20542;-50
2022/04/24 03:38:02;;;;;;;24.80;9.75;;;;;;;5.45;100.00;99855.47;5105140;28;20031;-48
2022/04/24 03:40:28;;;;;;;19.70;8.00;;;;;;;5.39;100.00;99861.41;5102006;28;20055;-45
2022/04/24 03:42:54;;;;;;;32.58;10.15;;;;;;;5.35;100.00;99855.69;5090773;28;20470;-48
2022/04/24 03:45:19;;;;;;;15.10;7.63;;;;;;;5.37;100.00;99863.38;5101868;28;20165;-45
2022/04/24 03:47:47;;;;;;;17.73;8.77;;;;;;;5.42;100.00;99866.31;5099779;28;20436;-50
2022/04/24 03:50:12;;;;;;;19.45;8.70;;;;;;;5.47;100.00;99862.19;5100145;28;20036;-48
2022/04/24 03:52:37;;;;;;;22.80;10.75;;;;;;;5.47;100.00;99864.81;5113514;28;20384;-49
2022/04/24 03:55:03;;;;;;;15.88;7.82;;;;;;;5.50;100.00;99862.81;5110335;28;20195;-51
2022/04/24 03:57:29;;;;;;;26.00;9.05;;;;;;;5.52;100.00;99866.09;5108560;28;20028;-50
2022/04/24 03:59:55;;;;;;;14.68;8.02;;;;;;;5.57;100.00;99866.41;5102052;28;20092;-48
2022/04/24 04:02:20;;;;;;;22.77;9.52;;;;;;;5.48;100.00;99870.88;5100451;28;20028;-48
2022/04/24 04:04:45;;;;;;;19.85;8.40;;;;;;;5.42;100.00;99872.41;5106620;28;20484;-47
2022/04/24 04:07:11;;;;;;;24.75;8.98;;;;;;;5.39;100.00;99870.09;5096088;28;20417;-48
2022/04/24 04:09:36;;;;;;;14.50;7.50;;;;;;;5.42;100.00;99876.81;5105399;28;20036;-49
2022/04/24 04:12:02;;;;;;;17.30;8.50;;;;;;;5.36;100.00;99867.81;5103203;28;20030;-47
2022/04/24 04:14:28;;;;;;;28.05;8.48;;;;;;;5.30;100.00;99873.78;5107424;28;20445;-48
2022/04/24 04:16:53;;;;;;;19.95;9.10;;;;;;;5.28;100.00;99880.19;5091993;28;20038;-47
2022/04/24 04:19:19;;;;;;;17.38;8.57;;;;;;;5.27;100.00;99882.00;5107856;28;20416;-47
2022/04/24 04:21:44;;;;;;;19.15;8.77;;;;;;;5.25;100.00;99889.25;5090652;28;20095;-46
2022/04/24 04:24:11;;;;;;;12.27;7.82;;;;;;;5.21;100.00;99886.13;5096288;28;20035;-50
2022/04/24 04:26:36;;;;;;;14.88;7.78;;;;;;;5.21;100.00;99886.13;5102498;28;20460;-47
2022/04/24 04:29:02;;;;;;;14.93;7.35;;;;;;;5.23;100.00;99885.94;5097581;28;20027;-49
2022/04/24 04:31:27;;;;;;;18.63;8.60;;;;;;;5.20;100.00;99892.38;5105144;28;20440;-47
2022/04/24 04:33:53;;;;;;;17.42;7.97;;;;;;;5.17;100.00;99897.16;5097860;28;20027;-47
2022/04/24 04:36:19;;;;;;;20.65;10.48;;;;;;;5.10;100.00;99904.06;5105462;28;20073;-48
2022/04/24 04:38:45;;;;;;;23.52;9.57;;;;;;;5.14;100.00;99908.00;5088806;28;20028;-46
2022/04/24 04:41:10;;;;;;;21.75;8.43;;;;;;;5.19;100.00;99908.31;5101843;28;20023;-48
2022/04/24 04:43:35;;;;;;;15.77;7.82;;;;;;;5.22;100.00;99913.25;5097162;28;20067;-47
2022/04/24 04:46:01;;;;;;;23.52;11.10;;;;;;;5.21;100.00;99911.56;5101636;28;20036;-49
2022/04/24 04:48:26;;;;;;;27.70;10.13;;;;;;;5.19;100.00;99924.09;5093968;28;20023;-48
2022/04/24 04:50:52;;;;;;;16.52;7.43;;;;;;;5.18;100.00;99927.69;5096102;28;20040;-49
2022/04/24 04:53:17;;;;;;;25.95;9.65;;;;;;;5.20;100.00;99930.97;5099788;28;20127;-48
2022/04/24 04:55:43;;;;;;;21.65;10.90;;;;;;;5.31;100.00;99927.97;5101341;28;20035;-48
2022/04/24 04:58:08;;;;;;;25.40;9.75;;;;;;;5.37;100.00;99929.94;5097682;28;20032;-48
2022/04/24 05:00:34;;;;;;;27.77;8.93;;;;;;;5.41;100.00;99943.56;5084548;28;20024;-46
2022/04/24 05:02:59;;;;;;;19.95;8.45;;;;;;;5.48;100.00;99934.00;5096813;28;20035;-49
2022/04/24 05:05:24;;;;;;;18.65;10.00;;;;;;;5.50;100.00;99942.53;5117383;28;20031;-45
2022/04/24 05:07:51;;;;;;;22.77;9.15;;;;;;;5.53;100.00;99946.63;5099761;28;20028;-47
2022/04/24 05:10:17;;;;;;;16.60;8.75;;;;;;;5.46;100.00;99949.94;5097278;28;21634;-48
2022/04/24 05:12:42;;;;;;;26.92;8.93;;;;;;;5.48;100.00;99960.28;5102003;28;20472;-49
2022/04/24 05:15:12;;;;;;;25.95;12.25;;;;;;;5.53;100.00;99965.03;5106776;28;20047;-47
2022/04/24 05:17:38;;;;;;;20.33;8.40;;;;;;;5.53;100.00;99952.72;5106377;28;20064;-47
2022/04/24 05:20:05;;;;;;;23.10;9.25;;;;;;;5.54;100.00;99967.50;5098782;28;20028;-50
2022/04/24 05:22:30;;;;;;;21.35;9.93;;;;;;;5.58;100.00;99971.44;5098155;28;20477;-47
2022/04/24 05:24:55;;;;;;;20.80;8.77;;;;;;;5.62;100.00;99977.97;5100711;28;20036;-50
2022/04/24 05:27:21;;;;;;;25.02;11.60;;;;;;;5.63;100.00;99981.44;5088638;28;20028;-48
2022/04/24 05:29:46;;;;;;;30.98;9.85;;;;;;;5.62;100.00;99970.06;5097661;28;20038;-52
2022/04/24 05:32:12;;;;;;;30.58;9.93;;;;;;;5.66;100.00;99974.03;5102756;28;20027;-49
2022/04/24 05:34:37;;;;;;;26.40;11.18;;;;;;;5.71;100.00;99991.94;5103319;28;20039;-48
2022/04/24 05:37:04;;;;;;;28.98;8.52;;;;;;;5.70;100.00;99982.38;5093334;28;20202;-47
2022/04/24 05:39:29;;;;;;;18.05;8.82;;;;;;;5.74;100.00;99981.06;5098310;28;20408;-46
2022/04/24 05:41:55;;;;;;;18.17;9.88;;;;;;;5.75;100.00;99980.06;5107489;28;20023;-46
2022/04/24 05:44:20;;;;;;;18.92;8.80;;;;;;;5.74;100.00;99983.69;5101300;28;20059;-50
2022/04/24 05:46:45;;;;;;;27.58;10.18;;;;;;;5.77;100.00;99993.03;5092388;28;20032;-46
2022/04/24 05:49:11;;;;;;;18.67;9.18;;;;;;;5.81;100.00;99992.53;5106478;28;20019;-48
2022/04/24 05:51:36;;;;;;;23.58;9.27;;;;;;;5.84;100.00;99997.44;5111988;28;20026;-49
2022/04/24 05:54:02;;;;;;;25.33;8.63;;;;;;;5.86;100.00;99995.47;5102688;28;20116;-48
2022/04/24 05:56:27;;;;;;;19.23;9.45;;;;;;;5.90;100.00;100002.00;5107299;28;20143;-46
2022/04/24 05:58:53;;;;;;;18.25;6.53;;;;;;;6.01;100.00;100002.66;5095500;28;20473;-51
2022/04/24 06:01:18;;;;;;;19.10;9.13;;;;;;;6.08;100.00;100003.59;5108990;28;20024;-49
2022/04/24 06:03:44;;;;;;;18.52;9.32;;;;;;;6.19;100.00;100005.81;5103307;28;20102;-46
2022/04/24 06:06:10;;;;;;;17.50;8.40;;;;;;;6.27;100.00;100008.44;5110220;28;20062;-46
2022/04/24 06:08:35;;;;;;;22.35;9.65;;;;;;;6.33;100.00;100007.72;5097944;28;20034;-47
2022/04/24 06:11:01;;;;;;;24.27;10.93;;;;;;;6.50;100.00;100002.34;5103124;28;20126;-47
2022/04/24 06:13:27;;;;;;;18.17;8.02;;;;;;;6.67;100.00;100005.69;5116974;28;20042;-48
2022/04/24 06:15:55;;;;;;;18.27;7.40;;;;;;;6.77;100.00;100006.25;5105438;28;20030;-49
2022/04/24 06:18:21;;;;;;;18.58;6.70;;;;;;;6.88;100.00;100008.44;5092648;28;20028;-53
2022/04/24 06:20:46;;;;;;;20.63;9.10;;;;;;;6.98;100.00;100005.56;5101258;28;20042;-50
2022/04/24 06:23:12;;;;;;;17.40;8.77;;;;;;;7.08;100.00;100014.03;5096284;28;20028;-53
2022/04/24 06:25:38;;;;;;;20.38;8.00;;;;;;;7.18;100.00;100025.16;5096660;28;20396;-48
2022/04/24 06:28:04;;;;;;;24.05;9.48;;;;;;;7.28;100.00;100024.06;5096810;28;20035;-51
2022/04/24 06:30:31;;;;;;;18.98;8.35;;;;;;;7.35;100.00;100032.88;5100091;28;20031;-51
2022/04/24 06:32:57;;;;;;;21.27;10.73;;;;;;;7.40;100.00;100033.16;5103286;28;20032;-52
2022/04/24 06:35:24;;;;;;;14.60;7.30;;;;;;;7.42;100.00;100036.44;5098583;28;20096;-50
2022/04/24 06:37:55;;;;;;;23.05;8.90;;;;;;;7.49;100.00;100029.44;5095705;28;20148;-47
2022/04/24 06:40:23;;;;;;;18.95;8.13;;;;;;;7.53;100.00;100035.97;5108767;28;20114;-53
2022/04/24 06:42:58;;;;;;;14.98;6.90;;;;;;;7.50;100.00;100035.53;5103979;28;20036;-48
2022/04/24 06:45:25;;;;;;;14.88;6.35;;;;;;;7.51;100.00;100038.00;5104359;28;20358;-47
2022/04/24 06:47:52;;;;;;;23.05;7.75;;;;;;;7.60;100.00;100036.09;5100365;28;20139;-46
2022/04/24 06:50:18;;;;;;;22.02;7.20;;;;;;;7.64;100.00;100030.28;5112330;28;20400;-47
2022/04/24 06:52:43;;;;;;;18.95;7.63;;;;;;;7.72;100.00;100036.44;5101942;28;20038;-56
2022/04/24 06:55:08;;;;;;;17.75;7.95;;;;;;;7.78;100.00;100043.63;5101288;28;20043;-48
2022/04/24 06:57:34;;;;;;;22.33;7.70;;;;;;;7.83;100.00;100031.53;5098767;28;20023;-49
2022/04/24 07:00:00;;;;;;;17.02;6.50;;;;;;;7.91;100.00;100038.53;5103342;28;20492;-47
2022/04/24 07:02:25;;;;;;;17.50;8.05;;;;;;;7.97;100.00;100043.03;5103856;28;20024;-48
2022/04/24 07:04:51;;;;;;;23.55;7.55;;;;;;;8.05;100.00;100050.88;5099393;28;20346;-48
2022/04/24 07:07:16;;;;;;;19.50;7.95;;;;;;;8.14;100.00;100046.31;5091108;28;20028;-46
2022/04/24 07:09:41;;;;;;;20.02;7.25;;;;;;;8.24;100.00;100046.84;5108447;28;20579;-51
2022/04/24 07:12:07;;;;;;;19.75;7.90;;;;;;;8.34;100.00;100048.34;5100308;28;20123;-47
2022/04/24 07:14:33;;;;;;;15.02;7.22;;;;;;;8.38;100.00;100054.91;5106303;28;20043;-48
2022/04/24 07:16:58;;;;;;;18.80;6.78;;;;;;;8.45;100.00;100051.34;5097526;28;20373;-47
2022/04/24 07:19:23;;;;;;;11.27;6.18;;;;;;;8.53;100.00;100047.78;5097491;28;20046;-51
2022/04/24 07:21:49;;;;;;;20.58;7.13;;;;;;;8.63;100.00;100056.22;5103959;28;20035;-47
2022/04/24 07:24:14;;;;;;;19.33;6.65;;;;;;;8.69;100.00;100049.34;5107798;28;20473;-51
2022/04/24 07:26:40;;;;;;;14.93;6.57;;;;;;;8.80;100.00;100048.81;5091207;28;20143;-50
2022/04/24 07:29:05;;;;;;;19.23;7.38;;;;;;;8.90;100.00;100054.59;5094535;28;20024;-52
2022/04/24 07:31:30;;;;;;;18.30;6.60;;;;;;;8.95;100.00;100046.94;5099047;28;20461;-51
2022/04/24 07:33:56;;;;;;;15.45;5.65;;;;;;;9.04;100.00;100049.47;5077404;28;20120;-50
2022/04/24 07:36:22;;;;;;;12.73;5.55;;;;;;;9.15;100.00;100055.03;5103441;28;20067;-48
2022/04/24 07:38:50;;;;;;;15.20;6.20;;;;;;;9.27;100.00;100054.53;5098290;28;20419;-46
2022/04/24 07:41:15;;;;;;;22.58;6.05;;;;;;;9.33;100.00;100059.03;5102292;28;20040;-47
2022/04/24 07:43:48;;;;;;;13.93;7.07;;;;;;;9.43;100.00;100061.34;5100307;28;20024;-50
2022/04/24 07:46:13;;;;;;;15.32;6.75;;;;;;;9.41;100.00;100058.88;5103333;28;20055;-49
2022/04/24 07:48:39;;;;;;;19.77;8.02;;;;;;;9.50;100.00;100054.22;5101358;28;20138;-49
2022/04/24 07:51:04;;;;;;;10.32;5.55;;;;;;;9.65;100.00;100056.78;5097822;28;20024;-51
2022/04/24 07:53:29;;;;;;;14.52;6.95;;;;;;;9.67;100.00;100060.88;5103561;28;20035;-48
2022/04/24 07:55:55;;;;;;;17.52;7.60;;;;;;;9.71;100.00;100064.75;5103070;28;20028;-50
2022/04/24 07:58:20;;;;;;;8.07;4.55;;;;;;;9.87;100.00;100057.50;5104706;28;20038;-48
2022/04/24 08:00:47;;;;;;;15.60;6.05;;;;;;;9.95;100.00;100062.63;5095942;28;20126;-50
2022/04/24 08:03:14;;;;;;;18.83;7.85;;;;;;;9.91;100.00;100058.75;5090623;28;20395;-48
2022/04/24 08:05:42;;;;;;;11.65;4.38;;;;;;;10.02;100.00;100060.84;5095854;28;20031;-50
2022/04/24 08:08:22;;;;;;;13.88;5.50;;;;;;;10.15;100.00;100066.19;5104520;28;20107;-49
2022/04/24 08:10:54;;;;;;;10.60;5.72;;;;;;;10.11;100.00;100061.47;5098080;28;20061;-47
2022/04/24 08:13:20;;;;;;;15.32;5.43;;;;;;;10.14;100.00;100056.59;5094382;28;20376;-47
2022/04/24 08:15:47;;;;;;;18.23;5.32;;;;;;;10.22;100.00;100059.09;5101500;28;20099;-50
2022/04/24 08:18:13;;;;;;;9.50;4.25;;;;;;;10.35;100.00;100055.69;5095311;28;20028;-48
2022/04/24 08:20:40;;;;;;;17.95;5.45;;;;;;;10.53;100.00;100055.09;5098904;28;20032;-46
2022/04/24 08:23:06;;;;;;;15.05;5.20;;;;;;;10.56;100.00;100060.03;5101923;28;20043;-50
2022/04/24 08:25:34;;;;;;;13.07;5.13;;;;;;;10.66;100.00;100052.50;5092755;28;20035;-49
2022/04/24 08:28:02;;;;;;;16.70;5.90;;;;;;;10.79;100.00;100059.66;5094754;28;20024;-52
2022/04/24 08:30:27;;;;;;;16.92;5.20;;;;;;;10.86;100.00;100060.44;5094294;28;20074;-48
2022/04/24 08:32:53;;;;;;;12.88;4.60;;;;;;;10.95;100.00;100060.28;5098391;28;20051;-50
2022/04/24 08:35:20;;;;;;;11.05;5.35;;;;;;;11.11;100.00;100062.50;5102123;28;20042;-49
2022/04/24 08:37:47;;;;;;;8.30;4.63;;;;;;;11.32;100.00;100059.63;5097015;28;20036;-49
2022/04/24 08:40:14;;;;;;;12.65;3.75;;;;;;;11.33;100.00;100058.63;5097272;28;20339;-49
2022/04/24 08:42:41;;;;;;;10.98;4.65;;;;;;;11.48;100.00;100047.75;5102519;28;20027;-47
2022/04/24 08:45:10;;;;;;;9.77;4.53;;;;;;;11.54;100.00;100057.56;5107493;28;20028;-49
2022/04/24 08:47:36;;;;;;;12.27;4.55;;;;;;;11.66;100.00;100054.25;5098305;28;20518;-47
2022/04/24 08:50:01;;;;;;;12.32;3.47;;;;;;;11.84;100.00;100046.44;5099653;28;20031;-48
2022/04/24 08:52:28;;;;;;;16.27;5.57;;;;;;;12.00;100.00;100051.34;5106025;28;20023;-49
2022/04/24 08:54:55;;;;;;;16.70;4.95;;;;;;;11.86;100.00;100062.19;5098681;28;20032;-47
2022/04/24 08:57:29;;;;;;;16.42;5.10;;;;;;;11.76;100.00;100054.66;5088256;28;20086;-47
2022/04/24 08:59:58;;;;;;;9.30;3.50;;;;;;;11.97;100.00;100057.03;5095701;28;20019;-47
2022/04/24 09:02:24;;;;;;;18.13;5.22;;;;;;;12.12;100.00;100054.13;5105264;28;20044;-50
2022/04/24 09:04:52;;;;;;;27.85;6.82;;;;;;;12.23;100.00;100066.75;5103431;28;20036;-49
2022/04/24 09:07:17;;;;;;;9.85;3.30;;;;;;;12.42;100.00;100065.03;5092780;28;20028;-51
2022/04/24 09:09:45;;;;;;;13.88;5.30;;;;;;;12.53;100.00;100086.66;5097476;28;20590;-49
2022/04/24 09:12:21;;;;;;;14.32;6.05;;;;;;;12.19;100.00;100070.06;5103651;28;20028;-50
2022/04/24 09:14:53;;;;;;;11.43;5.15;;;;;;;12.33;100.00;100070.81;5086314;28;20034;-49
2022/04/24 09:17:20;;;;;;;;;;;;;;;12.41;100.00;100068.69;5105312;28;20038;-47
2022/04/24 09:19:46;;;;;;;16.65;3.60;;;;;;;12.40;100.00;100069.75;5108838;28;19920;-52
2022/04/24 09:22:11;;;;;;;14.57;5.15;;;;;;;12.38;100.00;100070.97;5093467;28;20311;-49
2022/04/24 09:24:41;;;;;;;13.50;5.28;;;;;;;12.59;100.00;100075.97;5099380;28;20143;-47
2022/04/24 09:27:08;;;;;;;9.38;3.70;;;;;;;12.69;100.00;100070.19;5098761;28;20032;-50
2022/04/24 09:29:34;;;;;;;10.07;4.93;;;;;;;12.84;100.00;100068.03;5103407;28;20695;-50
2022/04/24 09:31:59;;;;;;;12.30;3.78;;;;;;;12.98;100.00;100079.38;5089640;28;20110;-49
2022/04/24 09:34:31;;;;;;;12.43;4.55;;;;;;;13.03;100.00;100071.56;5089607;28;20040;-48
2022/04/24 09:37:01;;;;;;;10.05;4.45;;;;;;;13.24;100.00;100069.56;5093933;28;20051;-48
2022/04/24 09:39:34;;;;;;;9.57;3.70;;;;;;;13.51;100.00;100075.50;5104977;28;20041;-49
2022/04/24 09:42:07;;;;;;;8.38;3.20;;;;;;;13.77;100.00;100068.25;5091845;28;20576;-53
2022/04/24 09:44:37;;;;;;;11.20;4.03;;;;;;;13.70;100.00;100066.47;5089270;28;20924;-47
2022/04/24 09:47:04;;;;;;;11.10;3.05;;;;;;;13.86;100.00;100072.25;5095719;28;20128;-46
2022/04/24 09:49:37;;;;;;;10.13;3.22;;;;;;;13.92;100.00;100066.84;5098874;28;20055;-47
2022/04/24 09:52:07;;;;;;;6.03;3.22;;;;;;;14.19;100.00;100067.31;5102394;28;20034;-49
2022/04/24 09:54:33;;;;;;;12.70;3.67;;;;;;;14.55;100.00;100062.19;5100147;28;20051;-47
2022/04/24 09:56:59;;;;;;;12.02;5.18;;;;;;;14.60;100.00;100071.13;5113217;28;20031;-51
2022/04/24 09:59:25;;;;;;;10.68;5.18;;;;;;;14.44;100.00;100068.25;5103848;28;20205;-50
2022/04/24 10:01:50;;;;;;;6.35;2.55;;;;;;;14.39;100.00;100063.59;5087057;28;20126;-48
2022/04/24 10:04:16;;;;;;;8.23;3.03;;;;;;;14.53;100.00;100061.59;5107925;28;20035;-48
2022/04/24 10:06:44;;;;;;;10.70;3.78;;;;;;;14.66;100.00;100073.91;5104873;28;20028;-46
2022/04/24 10:09:13;;;;;;;9.15;3.17;;;;;;;14.82;100.00;100067.94;5101170;28;20024;-51
2022/04/24 10:11:39;;;;;;;8.48;2.33;;;;;;;14.92;100.00;100054.84;5104143;28;20030;-50
2022/04/24 10:14:10;;;;;;;5.68;2.72;;;;;;;15.15;100.00;100055.91;5090564;28;20032;-48
2022/04/24 10:16:50;;;;;;;8.23;3.33;;;;;;;15.13;100.00;100058.00;5105827;28;20031;-52
2022/04/24 10:19:43;;;;;;;6.25;4.07;;;;;;;14.98;100.00;100061.13;5096978;28;20034;-47
2022/04/24 10:22:31;;;;;;;5.47;3.30;;;;;;;15.07;100.00;100062.41;5094676;28;20092;-50
2022/04/24 10:25:00;;;;;;;8.73;4.53;;;;;;;15.21;100.00;100063.81;5086143;28;20052;-50
2022/04/24 10:27:46;;;;;;;10.85;3.67;;;;;;;15.39;100.00;100060.22;5095550;28;20527;-52
2022/04/24 10:30:23;;;;;;;8.15;3.00;;;;;;;15.81;100.00;100057.41;5103787;28;20063;-53
2022/04/24 10:32:49;;;;;;;8.55;3.50;;;;;;;16.01;100.00;100065.03;5097339;28;20032;-52
2022/04/24 10:35:20;;;;;;;5.38;2.65;;;;;;;15.98;100.00;100059.34;5102737;28;20023;-48
2022/04/24 10:37:49;;;;;;;3.10;2.13;;;;;;;16.28;100.00;100061.81;5096444;28;20038;-46
2022/04/24 10:40:20;;;;;;;6.53;3.25;;;;;;;16.54;100.00;100063.88;5099480;28;20030;-51
2022/04/24 10:42:45;;;;;;;3.35;2.63;;;;;;;16.42;100.00;100065.00;5098786;28;20488;-48
2022/04/24 10:45:15;;;;;;;8.73;3.90;;;;;;;16.20;100.00;100067.53;5093879;28;20055;-52
2022/04/24 10:47:50;;;;;;;6.30;2.60;;;;;;;16.31;100.00;100059.44;5099342;28;20028;-49
2022/04/24 10:50:20;;;;;;;9.75;2.20;;;;;;;16.51;100.00;100083.09;5103885;28;20404;-53
2022/04/24 10:52:49;;;;;;;9.45;3.95;;;;;;;16.74;100.00;100066.13;5101969;28;20491;-48
2022/04/24 10:55:17;;;;;;;5.55;2.58;;;;;;;16.84;100.00;100068.19;5094550;28;20028;-47
2022/04/24 10:57:54;;;;;;;7.40;3.15;;;;;;;16.64;100.00;100063.25;5095812;28;20464;-49
2022/04/24 11:00:24;;;;;;;4.20;2.63;;;;;;;16.34;100.00;100069.69;5105505;28;20123;-48
2022/04/24 11:02:52;;;;;;;3.08;2.28;;;;;;;16.44;100.00;100069.06;5103520;28;20035;-51
2022/04/24 11:05:22;;;;;;;3.25;2.72;;;;;;;16.64;100.00;100073.16;5096176;28;20028;-48
2022/04/24 11:07:48;;;;;;;6.95;3.20;;;;;;;16.87;100.00;100056.19;5094447;28;20135;-48
2022/04/24 11:10:20;;;;;;;6.32;2.67;;;;;;;17.10;100.00;100065.94;5104611;28;20080;-48
2022/04/24 11:12:46;;;;;;;;;;;;;;;17.44;100.00;100067.50;5113625;28;20035;-53
2022/04/24 11:15:13;;;;;;;3.97;1.63;;;;;;;17.54;100.00;100066.84;5097749;28;19927;-50
2022/04/24 11:17:40;;;;;;;5.13;2.38;;;;;;;17.33;100.00;100064.94;5104823;28;20043;-48